Time;durP1;ratioP1;P1;durP2;ratioP2;P2;SDS_P1;SDS_P2;PMS_P1;PMS_P2;Temp;Humidity;BMP_temperature;BMP_pressure;BME280_temperature;BME280_humidity;BME280_pressure;Samples;Min_cycle;Max_cycle;Signal;HPM_P1;HPM_P2
2023/06/24 00:02:04;;;;;;;1.20;1.20;;;18.00;99.90;;;;;;5034983;28;20327;-61
2023/06/24 00:04:31;;;;;;;1.52;1.52;;;17.90;99.90;;;;;;5037777;28;20225;-62
2023/06/24 00:06:59;;;;;;;2.92;2.83;;;17.90;99.90;;;;;;5034694;28;20726;-61
2023/06/24 00:09:27;;;;;;;1.20;1.20;;;17.80;99.90;;;;;;5034103;28;20651;-61
2023/06/24 00:11:54;;;;;;;1.30;1.30;;;17.70;99.90;;;;;;5034503;28;20216;-60
2023/06/24 00:14:23;;;;;;;1.40;1.30;;;17.70;99.90;;;;;;5037411;28;20200;-60
2023/06/24 00:16:51;;;;;;;1.20;1.20;;;17.60;99.90;;;;;;5034569;28;20420;-62
2023/06/24 00:19:20;;;;;;;1.50;1.40;;;17.60;99.90;;;;;;5034471;28;20212;-61
2023/06/24 00:21:47;;;;;;;1.00;1.00;;;17.60;99.90;;;;;;5034662;28;20228;-61
2023/06/24 00:24:14;;;;;;;1.30;1.30;;;17.50;99.90;;;;;;5040428;28;20197;-61
2023/06/24 00:26:41;;;;;;;1.35;1.10;;;17.50;99.90;;;;;;5053960;28;20214;-62
2023/06/24 00:29:08;;;;;;;1.30;1.30;;;17.40;99.90;;;;;;5054348;28;20604;-60
2023/06/24 00:31:36;;;;;;;1.40;1.30;;;17.50;99.90;;;;;;5054217;28;20224;-59
2023/06/24 00:34:04;;;;;;;1.73;1.20;;;17.50;99.90;;;;;;5097593;22;20209;-61
2023/06/24 00:36:31;;;;;;;1.20;1.20;;;17.40;99.90;;;;;;5094069;28;20655;-60
2023/06/24 00:39:01;;;;;;;1.50;1.40;;;17.40;99.90;;;;;;5095011;28;20220;-60
2023/06/24 00:41:28;;;;;;;1.10;1.10;;;17.40;99.90;;;;;;5094369;28;20255;-60
2023/06/24 00:43:57;;;;;;;1.23;1.20;;;17.40;99.90;;;;;;5091656;28;20268;-62
2023/06/24 00:46:25;;;;;;;1.20;1.20;;;17.40;99.90;;;;;;5075587;28;20227;-62
2023/06/24 00:48:54;;;;;;;1.17;1.17;;;17.30;99.90;;;;;;5065908;28;20211;-61
2023/06/24 00:51:26;;;;;;;1.20;1.20;;;17.40;99.90;;;;;;5065930;28;20215;-61
2023/06/24 00:53:53;;;;;;;1.10;1.10;;;17.40;99.90;;;;;;5077178;28;20260;-61
2023/06/24 00:56:22;;;;;;;1.80;1.23;;;17.40;99.90;;;;;;5074926;28;20206;-60
2023/06/24 00:58:50;;;;;;;1.20;1.20;;;17.40;99.90;;;;;;5074578;28;20194;-60
2023/06/24 01:01:17;;;;;;;1.27;1.27;;;17.50;99.90;;;;;;5074144;28;20215;-61
2023/06/24 01:03:44;;;;;;;1.00;1.00;;;17.40;99.90;;;;;;5073597;28;20268;-60
2023/06/24 01:06:14;;;;;;;1.30;1.30;;;17.40;99.90;;;;;;5073066;28;20768;-60
2023/06/24 01:08:41;;;;;;;1.10;1.10;;;17.40;99.90;;;;;;5073581;28;20191;-60
2023/06/24 01:11:08;;;;;;;1.45;1.35;;;17.40;99.90;;;;;;5073868;28;20294;-60
2023/06/24 01:13:34;;;;;;;1.33;1.33;;;17.40;99.90;;;;;;5074045;28;20252;-62
2023/06/24 01:16:07;;;;;;;1.40;1.40;;;17.30;99.90;;;;;;5074831;28;20564;-62
2023/06/24 01:18:41;;;;;;;1.30;1.20;;;17.30;99.90;;;;;;5073945;28;20290;-60
2023/06/24 01:21:16;;;;;;;1.02;1.02;;;17.20;99.90;;;;;;5072882;28;20269;-62
2023/06/24 01:24:14;;;;;;;1.20;1.10;;;17.20;99.90;;;;;;5072817;28;20198;-60
2023/06/24 01:27:25;;;;;;;1.37;1.27;;;17.20;99.90;;;;;;5073574;28;20307;-62
2023/06/24 01:30:28;;;;;;;1.10;1.10;;;17.20;99.90;;;;;;5073375;28;20215;-61
2023/06/24 01:33:00;;;;;;;1.23;1.23;;;17.10;99.90;;;;;;5070519;28;20199;-60
2023/06/24 01:35:32;;;;;;;1.20;1.20;;;17.00;99.90;;;;;;5072642;28;20231;-60
2023/06/24 01:38:02;;;;;;;1.30;1.30;;;17.10;99.90;;;;;;5073587;28;20187;-62
2023/06/24 01:40:32;;;;;;;1.27;1.27;;;17.00;99.90;;;;;;5073796;28;20280;-60
2023/06/24 01:43:02;;;;;;;1.35;1.35;;;17.00;99.90;;;;;;5074529;28;20653;-60
2023/06/24 01:45:32;;;;;;;1.70;1.60;;;17.00;99.90;;;;;;5072960;28;20585;-61
2023/06/24 01:48:03;;;;;;;1.50;1.40;;;16.90;99.90;;;;;;5074250;28;20183;-59
2023/06/24 01:50:34;;;;;;;1.08;1.08;;;16.90;99.90;;;;;;5073840;28;20224;-62
2023/06/24 01:53:04;;;;;;;1.30;1.30;;;16.80;99.90;;;;;;5077216;28;20227;-61
2023/06/24 01:55:34;;;;;;;1.23;1.23;;;16.70;99.90;;;;;;5082983;28;20655;-60
2023/06/24 01:58:03;;;;;;;1.30;1.30;;;16.60;99.90;;;;;;5082384;28;20214;-61
2023/06/24 02:00:30;;;;;;;1.23;1.23;;;16.60;99.90;;;;;;5081147;28;20282;-61
2023/06/24 02:02:57;;;;;;;1.53;1.53;;;16.60;99.90;;;;;;5078848;28;20302;-61
2023/06/24 02:05:26;;;;;;;1.25;1.20;;;16.50;99.90;;;;;;5081468;28;20310;-60
2023/06/24 02:07:54;;;;;;;1.30;1.30;;;16.50;99.90;;;;;;5080878;28;20290;-60
2023/06/24 02:10:22;;;;;;;1.30;1.30;;;16.50;99.90;;;;;;5078253;28;20225;-61
2023/06/24 02:12:51;;;;;;;1.20;1.20;;;16.50;99.90;;;;;;5074315;28;20672;-61
2023/06/24 02:15:20;;;;;;;1.20;1.20;;;16.40;99.90;;;;;;5075894;28;20282;-61
2023/06/24 02:17:50;;;;;;;1.10;1.10;;;16.50;99.90;;;;;;5077588;28;20207;-59
2023/06/24 02:20:18;;;;;;;1.00;1.00;;;16.40;99.90;;;;;;5074053;28;20262;-60
2023/06/24 02:22:46;;;;;;;1.57;1.57;;;16.40;99.90;;;;;;5072144;28;20203;-62
2023/06/24 02:25:14;;;;;;;1.30;1.30;;;16.40;99.90;;;;;;5076396;28;20223;-59
2023/06/24 02:27:42;;;;;;;1.10;1.10;;;16.40;99.90;;;;;;5074734;28;20203;-61
2023/06/24 02:30:10;;;;;;;1.10;1.10;;;16.40;99.90;;;;;;5073243;28;20306;-61
2023/06/24 02:32:38;;;;;;;1.43;1.33;;;16.40;99.90;;;;;;5072602;28;20207;-62
2023/06/24 02:35:07;;;;;;;1.30;1.20;;;16.40;99.90;;;;;;5073882;28;20223;-62
2023/06/24 02:37:33;;;;;;;1.30;1.30;;;16.40;99.90;;;;;;5072240;28;20684;-65
2023/06/24 02:40:04;;;;;;;1.20;1.20;;;16.30;99.90;;;;;;5072108;28;20208;-60
2023/06/24 02:42:31;;;;;;;2.93;2.83;;;16.30;99.90;;;;;;5072472;28;20226;-61
2023/06/24 02:44:59;;;;;;;1.20;1.20;;;16.30;99.90;;;;;;5074696;28;20632;-61
2023/06/24 02:47:27;;;;;;;1.20;1.20;;;16.30;99.90;;;;;;5076378;28;20203;-61
2023/06/24 02:49:56;;;;;;;1.23;1.23;;;16.20;99.90;;;;;;5072873;28;20203;-61
2023/06/24 02:52:23;;;;;;;1.20;1.20;;;16.20;99.90;;;;;;5073769;28;20218;-60
2023/06/24 02:54:50;;;;;;;1.27;1.27;;;16.20;99.90;;;;;;5075956;28;20221;-61
2023/06/24 02:57:20;;;;;;;1.43;1.40;;;16.20;99.90;;;;;;5075785;28;20207;-61
2023/06/24 02:59:47;;;;;;;1.17;1.17;;;16.10;99.90;;;;;;5074979;28;20219;-62
2023/06/24 03:02:16;;;;;;;1.17;1.17;;;16.10;99.90;;;;;;5074657;28;20235;-61
2023/06/24 03:04:44;;;;;;;1.30;1.30;;;16.10;99.90;;;;;;5067281;28;20347;-60
2023/06/24 03:07:11;;;;;;;1.60;1.60;;;16.00;99.90;;;;;;5051701;28;20313;-61
2023/06/24 03:09:39;;;;;;;1.42;1.40;;;16.10;99.90;;;;;;5055490;28;20295;-61
2023/06/24 03:12:07;;;;;;;1.23;1.23;;;16.00;99.90;;;;;;5063720;28;20203;-61
2023/06/24 03:14:35;;;;;;;1.30;1.30;;;16.00;99.90;;;;;;5075512;28;20727;-62
2023/06/24 03:17:03;;;;;;;1.13;1.13;;;16.00;99.90;;;;;;5073658;28;20713;-61
2023/06/24 03:19:29;;;;;;;1.97;1.60;;;15.90;99.90;;;;;;5071436;28;20293;-61
2023/06/24 03:21:56;;;;;;;1.27;1.27;;;15.80;99.90;;;;;;5071367;28;20210;-60
2023/06/24 03:24:23;;;;;;;1.10;1.10;;;15.80;99.90;;;;;;5073041;28;20211;-60
2023/06/24 03:26:56;;;;;;;1.20;1.20;;;15.70;99.90;;;;;;5071096;28;20237;-61
2023/06/24 03:29:23;;;;;;;1.30;1.30;;;15.70;99.90;;;;;;5071486;28;20207;-59
2023/06/24 03:31:51;;;;;;;1.40;1.37;;;15.70;99.90;;;;;;5072360;28;20222;-61
2023/06/24 03:34:18;;;;;;;1.10;1.10;;;15.60;99.90;;;;;;5070258;28;20234;-60
2023/06/24 03:36:45;;;;;;;1.37;1.37;;;15.60;99.90;;;;;;5075703;28;20209;-60
2023/06/24 03:39:12;;;;;;;1.30;1.30;;;15.60;99.90;;;;;;5080039;28;20203;-62
2023/06/24 03:41:40;;;;;;;1.20;1.20;;;15.60;99.90;;;;;;5072088;28;20199;-64
2023/06/24 03:44:06;;;;;;;1.50;1.40;;;15.60;99.90;;;;;;5072955;28;20236;-61
2023/06/24 03:46:33;;;;;;;1.30;1.20;;;15.70;99.90;;;;;;5071236;28;20569;-60
2023/06/24 03:49:01;;;;;;;1.10;1.10;;;15.70;99.90;;;;;;5071464;28;20210;-60
2023/06/24 03:51:28;;;;;;;1.20;1.20;;;15.80;99.90;;;;;;5071851;28;20512;-60
2023/06/24 03:53:55;;;;;;;1.10;1.10;;;15.80;99.90;;;;;;5071640;28;20225;-60
2023/06/24 03:56:22;;;;;;;1.10;1.10;;;15.80;99.90;;;;;;5071196;28;20737;-60
2023/06/24 03:58:49;;;;;;;1.20;1.20;;;15.90;99.90;;;;;;5071095;28;20233;-61
2023/06/24 04:01:17;;;;;;;1.27;1.27;;;16.00;99.90;;;;;;5071370;28;20771;-62
2023/06/24 04:03:44;;;;;;;1.30;1.30;;;16.00;99.90;;;;;;5071132;28;20222;-61
2023/06/24 04:06:12;;;;;;;1.50;1.40;;;16.00;99.90;;;;;;5070761;28;20306;-60
2023/06/24 04:08:39;;;;;;;1.27;1.20;;;16.10;99.90;;;;;;5071562;28;20234;-60
2023/06/24 04:11:08;;;;;;;0.90;0.90;;;16.10;99.90;;;;;;5070427;28;20226;-60
2023/06/24 04:13:34;;;;;;;1.20;1.20;;;16.00;99.90;;;;;;5071535;28;20571;-60
2023/06/24 04:16:01;;;;;;;1.20;1.20;;;16.10;99.90;;;;;;5071939;28;20617;-60
2023/06/24 04:18:28;;;;;;;1.00;1.00;;;16.20;99.90;;;;;;5070810;28;20304;-60
2023/06/24 04:20:55;;;;;;;1.10;1.10;;;16.10;99.90;;;;;;5069964;28;20673;-63
2023/06/24 04:23:23;;;;;;;1.10;1.10;;;16.10;99.90;;;;;;5069613;28;20207;-61
2023/06/24 04:25:50;;;;;;;1.03;1.03;;;16.10;99.90;;;;;;5067621;28;20258;-60
2023/06/24 04:28:17;;;;;;;0.95;0.95;;;16.10;99.90;;;;;;5050764;28;20234;-60
2023/06/24 04:30:44;;;;;;;1.10;1.10;;;16.10;99.90;;;;;;5049656;28;20208;-61
2023/06/24 04:33:11;;;;;;;1.10;1.10;;;16.20;99.90;;;;;;5050205;28;20212;-59
2023/06/24 04:35:37;;;;;;;0.93;0.93;;;16.20;99.90;;;;;;5068889;28;20231;-62
2023/06/24 04:38:04;;;;;;;1.10;1.10;;;16.10;99.90;;;;;;5072169;28;20518;-60
2023/06/24 04:40:32;;;;;;;1.10;1.10;;;16.10;99.90;;;;;;5074025;28;20234;-62
2023/06/24 04:42:59;;;;;;;0.90;0.90;;;16.10;99.90;;;;;;5077456;28;20242;-60
2023/06/24 04:45:26;;;;;;;0.90;0.90;;;16.10;99.90;;;;;;5076104;28;20253;-55
2023/06/24 04:47:53;;;;;;;1.17;1.17;;;16.20;99.90;;;;;;5074091;28;20223;-54
2023/06/24 04:50:20;;;;;;;0.90;0.90;;;16.40;99.90;;;;;;5073582;28;20206;-54
2023/06/24 04:52:52;;;;;;;1.00;1.00;;;16.80;99.90;;;;;;5068462;28;20204;-55
2023/06/24 04:55:19;;;;;;;0.90;0.90;;;17.00;99.90;;;;;;5068211;28;20220;-54
2023/06/24 04:57:48;;;;;;;1.07;1.00;;;17.30;99.90;;;;;;5073818;28;20249;-54
2023/06/24 05:00:15;;;;;;;0.90;0.90;;;17.50;99.90;;;;;;5072163;28;20207;-55
2023/06/24 05:02:42;;;;;;;1.00;1.00;;;17.70;99.90;;;;;;5077677;28;20199;-55
2023/06/24 05:05:09;;;;;;;1.00;1.00;;;17.80;99.90;;;;;;5079172;28;20273;-55
2023/06/24 05:07:36;;;;;;;0.90;0.90;;;17.90;99.90;;;;;;5074935;28;20688;-54
2023/06/24 05:10:03;;;;;;;1.00;1.00;;;18.10;99.90;;;;;;5057920;28;20211;-54
2023/06/24 05:12:30;;;;;;;1.10;1.10;;;18.30;99.90;;;;;;5063976;28;20199;-54
2023/06/24 05:14:58;;;;;;;0.90;0.90;;;18.60;99.90;;;;;;5077652;28;20241;-55
2023/06/24 05:17:25;;;;;;;1.20;1.07;;;18.80;99.90;;;;;;5074922;28;20279;-54
2023/06/24 05:19:52;;;;;;;1.00;1.00;;;18.90;99.90;;;;;;5056750;28;20245;-56
2023/06/24 05:22:21;;;;;;;0.80;0.80;;;19.00;99.90;;;;;;5054261;28;20577;-54
2023/06/24 05:24:48;;;;;;;0.80;0.80;;;19.10;99.90;;;;;;5064397;28;20297;-54
2023/06/24 05:27:14;;;;;;;1.00;1.00;;;19.20;99.90;;;;;;5073907;28;20227;-55
2023/06/24 05:29:41;;;;;;;1.03;1.00;;;19.40;99.90;;;;;;5073633;28;20257;-54
2023/06/24 05:32:10;;;;;;;0.80;0.80;;;19.50;99.90;;;;;;5073828;28;20313;-55
2023/06/24 05:34:36;;;;;;;0.93;0.93;;;19.70;99.90;;;;;;5063917;28;20239;-54
2023/06/24 05:37:04;;;;;;;1.10;1.10;;;19.90;99.90;;;;;;5075391;28;20191;-55
2023/06/24 05:39:31;;;;;;;1.00;1.00;;;20.10;99.90;;;;;;5082604;28;20219;-56
2023/06/24 05:41:58;;;;;;;1.00;1.00;;;20.20;99.90;;;;;;5082096;28;20298;-56
2023/06/24 05:44:25;;;;;;;1.55;1.05;;;20.30;99.90;;;;;;5082455;28;20215;-55
2023/06/24 05:46:52;;;;;;;0.87;0.87;;;20.40;99.90;;;;;;5078041;28;20326;-55
2023/06/24 05:49:20;;;;;;;0.97;0.97;;;20.60;99.90;;;;;;5075948;28;20230;-56
2023/06/24 05:51:47;;;;;;;1.10;1.10;;;20.80;99.90;;;;;;5079170;28;20196;-55
2023/06/24 05:54:14;;;;;;;1.00;1.00;;;20.80;99.90;;;;;;5059271;28;20238;-55
2023/06/24 05:56:40;;;;;;;1.10;1.10;;;20.80;99.90;;;;;;5053207;28;20299;-54
2023/06/24 05:59:08;;;;;;;0.80;0.80;;;20.90;99.90;;;;;;5059178;28;20568;-55
2023/06/24 06:01:34;;;;;;;0.90;0.90;;;21.00;99.90;;;;;;5072497;28;20199;-54
2023/06/24 06:04:01;;;;;;;0.90;0.90;;;21.20;99.90;;;;;;5074104;28;20242;-56
2023/06/24 06:06:29;;;;;;;1.00;1.00;;;21.20;99.90;;;;;;5072632;28;20223;-56
2023/06/24 06:08:57;;;;;;;0.90;0.90;;;21.30;99.90;;;;;;5072223;28;20203;-56
2023/06/24 06:11:24;;;;;;;0.80;0.80;;;21.40;99.90;;;;;;5072280;28;20638;-55
2023/06/24 06:13:52;;;;;;;1.10;1.10;;;21.40;99.90;;;;;;5069256;28;20218;-56
2023/06/24 06:16:19;;;;;;;0.98;0.98;;;21.40;99.90;;;;;;5070875;28;20845;-55
2023/06/24 06:18:46;;;;;;;0.80;0.80;;;21.50;99.90;;;;;;5071629;28;20219;-54
2023/06/24 06:21:12;;;;;;;1.00;1.00;;;21.60;99.90;;;;;;5071593;28;20336;-55
2023/06/24 06:23:41;;;;;;;0.97;0.97;;;21.70;99.90;;;;;;5072120;28;20214;-55
2023/06/24 06:26:07;;;;;;;0.90;0.90;;;21.70;99.90;;;;;;5071718;28;20206;-55
2023/06/24 06:28:34;;;;;;;1.00;1.00;;;21.70;99.90;;;;;;5071103;28;20290;-56
2023/06/24 06:31:01;;;;;;;1.00;1.00;;;21.80;99.90;;;;;;5071756;28;20207;-54
2023/06/24 06:33:28;;;;;;;0.83;0.83;;;22.10;99.90;;;;;;5071645;28;20213;-56
2023/06/24 06:35:55;;;;;;;1.02;1.02;;;22.10;99.90;;;;;;5073036;28;20227;-62
2023/06/24 06:38:21;;;;;;;1.10;1.10;;;22.10;99.90;;;;;;5072524;28;20222;-61
2023/06/24 06:40:49;;;;;;;1.13;1.13;;;22.20;99.90;;;;;;5071502;28;20308;-61
2023/06/24 06:43:16;;;;;;;1.20;1.20;;;22.30;99.90;;;;;;5074271;28;20211;-60
2023/06/24 06:45:43;;;;;;;1.10;1.10;;;22.30;99.90;;;;;;5072329;28;20227;-60
2023/06/24 06:48:10;;;;;;;1.27;1.27;;;22.40;99.90;;;;;;5075714;28;20227;-59
2023/06/24 06:50:37;;;;;;;1.17;1.17;;;22.40;99.90;;;;;;5071285;28;20275;-61
2023/06/24 06:53:04;;;;;;;1.20;1.20;;;22.50;99.90;;;;;;5084494;22;20227;-62
2023/06/24 06:55:30;;;;;;;1.48;1.20;;;22.60;99.90;;;;;;5071185;28;20209;-62
2023/06/24 06:57:59;;;;;;;1.60;1.10;;;22.70;99.90;;;;;;5071511;28;20191;-61
2023/06/24 07:00:26;;;;;;;1.25;1.20;;;22.80;99.90;;;;;;5070323;28;20446;-63
2023/06/24 07:02:52;;;;;;;1.00;1.00;;;22.90;99.90;;;;;;5076895;28;20291;-62
2023/06/24 07:05:19;;;;;;;1.10;1.10;;;23.00;99.90;;;;;;5083889;28;20195;-62
2023/06/24 07:07:49;;;;;;;1.20;1.20;;;23.10;99.90;;;;;;5072688;28;20230;-64
2023/06/24 07:10:17;;;;;;;1.10;1.10;;;23.10;99.90;;;;;;5073350;28;20210;-61
2023/06/24 07:12:44;;;;;;;1.42;1.33;;;23.20;99.90;;;;;;5070595;28;20263;-61
2023/06/24 07:15:12;;;;;;;1.20;1.20;;;23.30;99.90;;;;;;5070214;28;20294;-63
2023/06/24 07:17:39;;;;;;;1.20;1.20;;;23.40;99.90;;;;;;5071866;28;20311;-62
2023/06/24 07:20:07;;;;;;;3.33;3.22;;;23.50;99.90;;;;;;5071222;28;20215;-63
2023/06/24 07:22:34;;;;;;;1.23;1.20;;;23.60;99.90;;;;;;5070415;28;20230;-62
2023/06/24 07:25:00;;;;;;;1.40;1.30;;;23.60;99.90;;;;;;5072366;28;20719;-63
2023/06/24 07:27:27;;;;;;;1.30;1.30;;;23.70;99.90;;;;;;5071476;28;20223;-63
2023/06/24 07:29:54;;;;;;;1.40;1.40;;;23.90;99.90;;;;;;5070600;28;20207;-61
2023/06/24 07:32:22;;;;;;;1.30;1.30;;;23.90;99.90;;;;;;5075774;28;20740;-63
2023/06/24 07:34:49;;;;;;;1.25;1.25;;;24.00;99.90;;;;;;5070061;28;20218;-63
2023/06/24 07:37:16;;;;;;;1.27;1.27;;;23.90;99.90;;;;;;5070593;28;20203;-62
2023/06/24 07:39:42;;;;;;;1.50;1.50;;;24.10;99.90;;;;;;5070804;28;20339;-62
2023/06/24 07:42:09;;;;;;;1.20;1.20;;;24.00;99.90;;;;;;5070560;28;20214;-62
2023/06/24 07:44:39;;;;;;;1.45;1.45;;;24.00;99.90;;;;;;5069375;28;20214;-62
2023/06/24 07:47:06;;;;;;;1.63;1.52;;;24.00;99.90;;;;;;5071129;28;20317;-62
2023/06/24 07:49:34;;;;;;;3.05;2.95;;;24.20;99.90;;;;;;5069905;28;20687;-63
2023/06/24 07:52:02;;;;;;;1.33;1.23;;;24.20;99.90;;;;;;5070159;28;20203;-64
2023/06/24 07:54:28;;;;;;;1.55;1.55;;;24.20;99.90;;;;;;5072889;28;20349;-62
2023/06/24 07:56:55;;;;;;;2.05;1.95;;;24.20;99.90;;;;;;5070511;28;20673;-62
2023/06/24 07:59:22;;;;;;;1.30;1.30;;;24.30;99.90;;;;;;5070196;28;20200;-63
2023/06/24 08:01:49;;;;;;;2.03;1.92;;;24.40;99.90;;;;;;5070963;28;20209;-63
2023/06/24 08:04:16;;;;;;;1.50;1.40;;;24.30;99.90;;;;;;5071726;28;20222;-63
2023/06/24 08:06:44;;;;;;;1.40;1.40;;;24.20;99.90;;;;;;5070268;28;20210;-63
2023/06/24 08:09:11;;;;;;;2.80;2.70;;;24.40;99.90;;;;;;5071191;28;20298;-63
2023/06/24 08:11:38;;;;;;;2.40;2.30;;;24.50;99.90;;;;;;5084186;28;20210;-62
2023/06/24 08:14:05;;;;;;;1.48;1.48;;;24.40;99.90;;;;;;5089752;28;20600;-62
2023/06/24 08:16:32;;;;;;;2.80;2.70;;;24.60;99.90;;;;;;5074679;28;20203;-63
2023/06/24 08:18:58;;;;;;;4.05;3.95;;;24.70;99.90;;;;;;5075327;28;20697;-63
2023/06/24 08:21:25;;;;;;;1.10;1.10;;;24.90;99.90;;;;;;5075178;28;20203;-63
2023/06/24 08:23:53;;;;;;;1.20;1.20;;;25.00;99.90;;;;;;5074900;28;20227;-61
2023/06/24 08:26:21;;;;;;;1.45;1.45;;;25.00;99.90;;;;;;5073802;28;20207;-61
2023/06/24 08:34:54;;;;;;;1.55;1.35;;;25.30;99.90;;;;;;5074691;28;20194;-62
2023/06/24 08:37:21;;;;;;;1.35;1.35;;;25.30;99.90;;;;;;5075137;28;20286;-62
2023/06/24 08:39:49;;;;;;;1.20;1.20;;;25.40;99.90;;;;;;5077151;28;20669;-62
2023/06/24 08:42:16;;;;;;;1.15;1.15;;;25.50;99.90;;;;;;5075171;28;20227;-64
2023/06/24 08:44:43;;;;;;;1.10;1.10;;;25.50;99.90;;;;;;5073175;28;20213;-62
2023/06/24 08:47:10;;;;;;;1.08;1.08;;;25.60;99.90;;;;;;5074488;28;20227;-63
2023/06/24 08:49:44;;;;;;;1.13;1.13;;;25.80;99.90;;;;;;5074574;28;20238;-62
2023/06/24 08:52:16;;;;;;;1.00;1.00;;;25.80;99.90;;;;;;5074455;28;20205;-62
2023/06/24 08:54:47;;;;;;;1.10;1.10;;;25.80;99.90;;;;;;5075987;28;20215;-62
2023/06/24 08:57:15;;;;;;;1.20;1.20;;;25.90;99.90;;;;;;5074952;28;20194;-61
2023/06/24 08:59:43;;;;;;;1.10;1.10;;;26.00;99.90;;;;;;5073594;28;20203;-63
2023/06/24 09:02:10;;;;;;;1.10;1.10;;;26.10;99.90;;;;;;5079110;28;20205;-62
2023/06/24 09:04:37;;;;;;;1.30;1.30;;;26.20;99.90;;;;;;5072915;28;20211;-61
2023/06/24 09:07:05;;;;;;;3.50;3.40;;;26.20;99.90;;;;;;5073439;28;20203;-62
2023/06/24 09:09:32;;;;;;;0.90;0.90;;;26.20;99.90;;;;;;5072914;28;20839;-62
2023/06/24 09:11:59;;;;;;;0.93;0.93;;;26.20;99.90;;;;;;5073552;28;20203;-62
2023/06/24 09:14:30;;;;;;;2.08;1.98;;;26.30;99.90;;;;;;5075512;28;20195;-62
2023/06/24 09:17:00;;;;;;;1.00;1.00;;;26.40;99.90;;;;;;5073463;28;20211;-62
2023/06/24 09:19:29;;;;;;;1.33;1.23;;;26.50;99.90;;;;;;5072774;28;20279;-62
2023/06/24 09:21:58;;;;;;;1.35;1.30;;;26.60;99.90;;;;;;5073471;28;20795;-61
2023/06/24 09:24:28;;;;;;;1.17;1.17;;;26.60;99.90;;;;;;5073287;28;20204;-63
2023/06/24 09:26:58;;;;;;;1.58;1.48;;;26.60;99.90;;;;;;5073583;28;20207;-63
2023/06/24 09:29:28;;;;;;;1.13;1.13;;;26.70;99.90;;;;;;5072924;28;20606;-63
2023/06/24 09:31:55;;;;;;;1.23;1.13;;;26.70;99.90;;;;;;5073340;28;20204;-63
2023/06/24 09:34:22;;;;;;;1.33;1.23;;;26.80;99.90;;;;;;5075311;28;20309;-62
2023/06/24 09:36:53;;;;;;;2.40;1.35;;;26.80;99.90;;;;;;5073811;28;20213;-61
2023/06/24 09:39:21;;;;;;;1.30;1.30;;;27.10;99.90;;;;;;5072955;28;20241;-62
2023/06/24 09:41:50;;;;;;;1.33;1.08;;;26.90;99.90;;;;;;5073336;28;20276;-62
2023/06/24 09:44:19;;;;;;;1.08;1.08;;;26.90;99.90;;;;;;5074675;28;20226;-63
2023/06/24 09:46:47;;;;;;;1.08;1.08;;;27.10;99.90;;;;;;5074361;28;20207;-62
2023/06/24 09:49:15;;;;;;;1.00;1.00;;;27.10;99.90;;;;;;5074027;28;20233;-62
2023/06/24 09:51:44;;;;;;;1.10;1.10;;;27.30;99.90;;;;;;5074266;28;20290;-63
2023/06/24 09:54:13;;;;;;;1.00;1.00;;;27.50;99.90;;;;;;5075363;28;20223;-62
2023/06/24 09:56:44;;;;;;;1.15;1.10;;;27.60;99.90;;;;;;5075454;28;20271;-62
2023/06/24 09:59:13;;;;;;;1.20;1.10;;;27.60;99.90;;;;;;5078394;28;20207;-62
2023/06/24 10:01:42;;;;;;;1.00;1.00;;;27.60;99.90;;;;;;5087139;28;20222;-63
2023/06/24 10:04:14;;;;;;;1.13;1.13;;;27.60;99.90;;;;;;5077000;28;20256;-61
2023/06/24 10:06:40;;;;;;;1.00;1.00;;;27.70;99.90;;;;;;5073294;28;20196;-63
2023/06/24 10:09:08;;;;;;;1.00;1.00;;;27.70;99.90;;;;;;5073254;28;20235;-61
2023/06/24 10:11:34;;;;;;;1.00;1.00;;;27.80;99.90;;;;;;5073220;28;20294;-62
2023/06/24 10:14:02;;;;;;;1.00;1.00;;;27.80;99.90;;;;;;5074242;28;20879;-62
2023/06/24 10:16:29;;;;;;;0.90;0.90;;;27.90;99.90;;;;;;5072223;28;20203;-62
2023/06/24 10:19:01;;;;;;;1.25;1.15;;;28.00;99.90;;;;;;5071607;28;20222;-61
2023/06/24 10:21:46;;;;;;;1.10;1.10;;;28.00;99.90;;;;;;5072668;28;20215;-62
2023/06/24 10:24:13;;;;;;;1.13;1.13;;;28.10;99.90;;;;;;5073314;28;20305;-62
2023/06/24 10:26:41;;;;;;;1.10;1.10;;;28.20;99.90;;;;;;5072724;28;20209;-62
2023/06/24 10:29:14;;;;;;;3.33;1.63;;;28.20;99.90;;;;;;5072119;28;20261;-63
2023/06/24 10:32:01;;;;;;;1.30;1.30;;;28.10;99.90;;;;;;5072327;28;20211;-62
2023/06/24 10:34:33;;;;;;;1.20;1.20;;;28.10;99.90;;;;;;5075471;28;20723;-62
2023/06/24 10:37:03;;;;;;;1.30;1.30;;;28.10;99.90;;;;;;5072649;28;20207;-61
2023/06/24 10:39:40;;;;;;;1.20;1.20;;;28.40;99.90;;;;;;5072913;28;20204;-63
2023/06/24 10:42:38;;;;;;;1.10;1.10;;;28.20;99.90;;;;;;5071977;28;20273;-63
2023/06/24 10:45:26;;;;;;;1.10;1.10;;;28.20;99.90;;;;;;5073176;28;20246;-64
2023/06/24 10:47:56;;;;;;;1.20;1.20;;;28.20;99.90;;;;;;5065338;28;20227;-63
2023/06/24 10:50:24;;;;;;;1.10;1.10;;;28.30;99.90;;;;;;5071309;28;20704;-62
2023/06/24 10:52:55;;;;;;;1.25;1.25;;;28.30;99.90;;;;;;5071004;28;20716;-62
2023/06/24 10:55:24;;;;;;;1.40;1.40;;;28.40;99.90;;;;;;5070571;28;20195;-64
2023/06/24 10:57:51;;;;;;;1.40;1.30;;;28.50;99.90;;;;;;5071439;28;20688;-64
2023/06/24 11:00:18;;;;;;;1.10;1.10;;;28.40;99.90;;;;;;5071385;28;20207;-62
2023/06/24 11:02:45;;;;;;;1.00;1.00;;;28.60;99.90;;;;;;5073000;28;20225;-61
2023/06/24 11:05:12;;;;;;;1.17;1.17;;;28.70;99.90;;;;;;5073354;28;20203;-62
2023/06/24 11:07:39;;;;;;;1.20;1.20;;;28.70;99.90;;;;;;5071385;28;20210;-63
2023/06/24 11:10:10;;;;;;;1.25;1.20;;;28.50;99.90;;;;;;5071215;28;20210;-62
2023/06/24 11:12:38;;;;;;;1.25;1.25;;;28.60;99.90;;;;;;5071146;28;20230;-61
2023/06/24 11:15:07;;;;;;;367.75;106.88;;;28.30;99.90;;;;;;5070714;28;20572;-63
2023/06/24 11:17:35;;;;;;;1.30;1.20;;;28.20;99.90;;;;;;5070932;28;20211;-62
2023/06/24 11:20:03;;;;;;;1.63;1.52;;;28.30;99.90;;;;;;5070724;28;20203;-63
2023/06/24 11:22:30;;;;;;;13.18;12.35;;;28.10;99.90;;;;;;5071071;28;20571;-62
2023/06/24 11:24:57;;;;;;;2.20;1.70;;;28.00;99.90;;;;;;5073177;28;20210;-61
2023/06/24 11:27:29;;;;;;;15.30;14.73;;;27.80;99.90;;;;;;5074989;28;20681;-63
2023/06/24 11:30:00;;;;;;;57.88;53.70;;;27.90;99.90;;;;;;5071484;28;20281;-62
2023/06/24 11:32:36;;;;;;;10.95;10.48;;;28.20;99.90;;;;;;5071282;28;20284;-63
2023/06/24 11:35:03;;;;;;;1.02;1.02;;;28.60;99.90;;;;;;5070233;28;20207;-62
2023/06/24 11:37:33;;;;;;;1.00;1.00;;;28.90;99.90;;;;;;5071154;28;20210;-62
2023/06/24 11:40:04;;;;;;;0.90;0.90;;;29.00;99.90;;;;;;5070397;28;20730;-64
2023/06/24 11:42:33;;;;;;;1.00;1.00;;;29.10;99.90;;;;;;5070288;28;20225;-62
2023/06/24 11:45:03;;;;;;;1.30;1.20;;;29.10;99.90;;;;;;5072309;28;20203;-61
2023/06/24 11:47:34;;;;;;;1.10;1.10;;;29.10;99.90;;;;;;5072039;28;20205;-62
2023/06/24 11:50:02;;;;;;;1.00;1.00;;;29.20;99.90;;;;;;5074513;28;20261;-63
2023/06/24 11:52:44;;;;;;;1.20;1.20;;;29.30;99.90;;;;;;5074688;28;20238;-62
2023/06/24 11:55:17;;;;;;;1.10;1.10;;;29.30;99.90;;;;;;5076836;28;20282;-62
2023/06/24 11:57:54;;;;;;;1.00;1.00;;;29.40;99.90;;;;;;5062805;28;20197;-62
2023/06/24 12:00:23;;;;;;;0.90;0.90;;;29.40;99.90;;;;;;5078059;28;20217;-63
2023/06/24 12:02:57;;;;;;;1.00;1.00;;;29.60;99.90;;;;;;5075110;28;20715;-62
2023/06/24 12:05:28;;;;;;;1.05;1.05;;;29.60;99.90;;;;;;5076394;28;20194;-63
2023/06/24 12:07:56;;;;;;;1.10;1.10;;;29.70;99.90;;;;;;5077098;28;20242;-61
2023/06/24 12:10:23;;;;;;;1.00;1.00;;;29.80;99.90;;;;;;5078072;28;20203;-63
2023/06/24 12:12:51;;;;;;;0.98;0.98;;;29.80;99.90;;;;;;5078097;28;20226;-63
2023/06/24 12:15:18;;;;;;;1.00;1.00;;;29.70;99.90;;;;;;5078910;28;20199;-62
2023/06/24 12:17:45;;;;;;;1.15;1.15;;;29.70;99.90;;;;;;5076370;28;20206;-62
2023/06/24 12:20:14;;;;;;;1.10;1.10;;;29.70;99.90;;;;;;5072902;28;20195;-62
2023/06/24 12:22:41;;;;;;;1.10;1.10;;;29.60;99.90;;;;;;5071218;28;20310;-62
2023/06/24 12:25:09;;;;;;;0.90;0.90;;;29.50;99.90;;;;;;5077795;28;20199;-63
2023/06/24 12:27:35;;;;;;;0.93;0.93;;;29.60;99.90;;;;;;5072905;28;20340;-62
2023/06/24 12:30:04;;;;;;;1.17;1.17;;;29.90;99.90;;;;;;5073004;28;20223;-62
2023/06/24 12:32:31;;;;;;;1.00;1.00;;;29.80;99.90;;;;;;5073811;28;20223;-62
2023/06/24 12:34:58;;;;;;;1.00;1.00;;;29.80;99.90;;;;;;5074395;28;20202;-62
2023/06/24 12:37:25;;;;;;;0.90;0.90;;;29.70;99.90;;;;;;5069526;28;20675;-62
2023/06/24 12:39:52;;;;;;;1.13;1.10;;;29.80;99.90;;;;;;5068717;28;20200;-63
2023/06/24 12:42:19;;;;;;;0.88;0.88;;;30.00;99.90;;;;;;5073189;28;20745;-61
2023/06/24 12:44:46;;;;;;;1.10;1.10;;;29.90;99.90;;;;;;5077843;28;20294;-63
2023/06/24 12:47:14;;;;;;;1.10;1.10;;;30.00;99.90;;;;;;5073694;28;20214;-64
2023/06/24 12:49:41;;;;;;;0.90;0.90;;;30.00;99.90;;;;;;5072909;28;20219;-62
2023/06/24 12:52:08;;;;;;;1.20;1.20;;;30.10;99.90;;;;;;5077424;28;20230;-63
2023/06/24 12:54:35;;;;;;;1.10;1.10;;;30.30;99.90;;;;;;5076679;28;20632;-62
2023/06/24 12:57:02;;;;;;;1.20;1.20;;;30.30;99.90;;;;;;5072512;28;20228;-62
2023/06/24 12:59:29;;;;;;;1.30;1.20;;;30.00;99.90;;;;;;5069696;28;20709;-62